createdAt,value
2023-03-11T09:34:11.674Z,0.70
2023-03-11T09:49:24.036Z,0.73
2023-03-11T10:04:33.050Z,2.50
2023-03-11T10:19:45.626Z,7.40
2023-03-11T10:34:54.497Z,7.15
2023-03-11T10:49:59.079Z,5.68
2023-03-11T11:05:28.914Z,5.00
2023-03-11T11:20:34.398Z,4.15
2023-03-11T11:35:51.591Z,5.68
2023-03-11T11:51:00.021Z,6.15
2023-03-11T12:06:13.454Z,5.32
2023-03-11T12:21:32.699Z,4.20
2023-03-11T12:36:40.604Z,3.22
2023-03-11T12:52:03.046Z,3.10
2023-03-11T13:07:44.445Z,1.80
2023-03-11T13:38:35.362Z,1.65
2023-03-11T13:53:44.750Z,1.40
2023-03-11T14:08:55.859Z,1.33
2023-03-11T14:24:01.171Z,1.10
2023-03-11T14:39:06.516Z,1.10
2023-03-11T14:54:17.249Z,0.90
2023-03-11T15:09:24.070Z,1.20
2023-03-11T15:24:31.203Z,0.90
2023-03-11T15:39:53.842Z,0.75
2023-03-11T15:54:58.368Z,1.00
2023-03-11T16:10:04.429Z,0.80
2023-03-11T16:25:19.040Z,0.68
2023-03-11T16:40:26.793Z,0.80
2023-03-11T16:55:31.579Z,1.00
2023-03-11T17:10:39.803Z,0.50
2023-03-11T17:25:44.420Z,0.70
2023-03-11T17:40:49.036Z,0.47
2023-03-11T17:55:54.080Z,0.70
2023-03-11T18:11:01.125Z,0.77
2023-03-11T18:26:08.013Z,0.60
2023-03-11T18:41:12.735Z,0.82
2023-03-11T18:56:18.687Z,0.50
2023-03-11T19:11:24.471Z,0.55
2023-03-11T19:26:43.854Z,0.60
2023-03-11T19:41:49.778Z,0.60
2023-03-11T19:56:54.348Z,0.55
2023-03-11T20:11:58.846Z,0.50
2023-03-11T20:27:03.460Z,0.80
2023-03-11T20:42:08.049Z,0.80
2023-03-11T20:57:12.813Z,0.50
2023-03-11T21:12:17.425Z,0.60
2023-03-11T21:27:26.492Z,1.40
